createdAt,value
2022-09-14T00:02:44.053Z,99529.63
2022-09-14T00:07:48.519Z,99523.06
2022-09-14T00:12:53.052Z,99513.72
2022-09-14T00:17:59.324Z,99529.41
2022-09-14T00:23:04.907Z,99519.84
2022-09-14T00:28:09.965Z,99514.34
2022-09-14T00:33:15.562Z,99500.69
2022-09-14T00:38:19.476Z,99498.47
2022-09-14T00:43:26.234Z,99507.06
2022-09-14T00:48:32.439Z,99503.38
2022-09-14T00:53:37.751Z,99499.09
2022-09-14T00:58:44.509Z,99483.59
2022-09-14T01:03:48.557Z,99493.41
2022-09-14T01:09:05.096Z,99482.56
2022-09-14T01:14:19.292Z,99478.72
2022-09-14T01:19:32.916Z,99480.69
2022-09-14T01:24:48.541Z,99483.16
2022-09-14T01:30:03.562Z,99488.63
2022-09-14T01:35:15.925Z,99489.66
2022-09-14T01:40:29.330Z,99491.06
2022-09-14T01:45:38.662Z,99481.06
2022-09-14T01:50:46.493Z,99485.75
2022-09-14T01:55:54.819Z,99483.50
2022-09-14T02:01:03.421Z,99480.84
2022-09-14T02:06:13.099Z,99480.03
2022-09-14T02:11:16.455Z,99469.44
2022-09-14T02:16:23.322Z,99465.34
2022-09-14T02:21:32.468Z,99458.22
2022-09-14T02:26:36.916Z,99463.28
2022-09-14T02:31:57.459Z,99447.81
2022-09-14T02:37:05.440Z,99450.47
2022-09-14T02:42:19.934Z,99461.66
2022-09-14T02:47:30.460Z,99450.47
2022-09-14T02:52:38.885Z,99437.63
2022-09-14T02:58:10.704Z,99438.41
2022-09-14T03:03:17.154Z,99442.91
2022-09-14T03:08:23.813Z,99445.94
2022-09-14T03:13:29.984Z,99440.84
2022-09-14T03:18:35.497Z,99438.59
2022-09-14T03:23:39.952Z,99431.84
2022-09-14T03:28:46.405Z,99436.34
2022-09-14T03:34:00.086Z,99426.78
2022-09-14T03:39:04.651Z,99414.94
2022-09-14T03:44:18.298Z,99413.94
2022-09-14T03:49:22.967Z,99408.66
2022-09-14T03:54:26.475Z,99411.06
2022-09-14T03:59:29.989Z,99407.00
2022-09-14T04:04:34.413Z,99390.88
2022-09-14T04:09:41.003Z,99394.75
2022-09-14T04:14:45.090Z,99401.66
2022-09-14T04:19:52.128Z,99398.81
2022-09-14T04:24:56.932Z,99388.44
2022-09-14T04:30:02.865Z,99388.84
2022-09-14T04:35:08.530Z,99387.00
2022-09-14T04:40:13.566Z,99393.50
2022-09-14T04:45:17.743Z,99393.50
2022-09-14T04:50:22.870Z,99395.13
2022-09-14T04:55:29.069Z,99392.63
2022-09-14T05:00:36.207Z,99392.41
2022-09-14T05:05:44.815Z,99393.22
2022-09-14T05:10:50.534Z,99393.03
2022-09-14T05:15:54.289Z,99394.84
2022-09-14T05:21:07.593Z,99390.38
2022-09-14T05:26:14.720Z,99379.59
2022-09-14T05:31:18.078Z,99379.81
2022-09-14T05:36:30.452Z,99375.97
2022-09-14T05:41:33.918Z,99367.84
2022-09-14T05:46:38.784Z,99367.84
2022-09-14T05:51:46.440Z,99371.72
2022-09-14T05:56:52.941Z,99365.63
2022-09-14T06:01:57.589Z,99367.47
2022-09-14T06:07:18.310Z,99370.13
2022-09-14T06:12:26.199Z,99361.16
2022-09-14T06:17:31.583Z,99366.06
2022-09-14T06:22:37.701Z,99356.47
2022-09-14T06:27:44.480Z,99350.38
2022-09-14T06:32:48.891Z,99357.50
2022-09-14T06:37:56.355Z,99361.97
2022-09-14T06:43:02.558Z,99370.75
2022-09-14T06:48:14.681Z,99369.16
2022-09-14T06:53:27.375Z,99373.00
2022-09-14T06:58:31.985Z,99373.81
2022-09-14T07:03:38.592Z,99379.72
2022-09-14T07:08:44.745Z,99374.63
2022-09-14T07:13:55.189Z,99374.00
2022-09-14T07:19:07.986Z,99378.50
2022-09-14T07:24:16.561Z,99375.47
2022-09-14T07:29:22.123Z,99376.47
2022-09-14T07:34:31.377Z,99370.56
2022-09-14T07:39:40.014Z,99379.72
2022-09-14T07:44:53.989Z,99379.75
2022-09-14T07:49:58.786Z,99374.06
2022-09-14T07:55:03.563Z,99387.91
2022-09-14T08:00:09.236Z,99380.38
2022-09-14T08:05:13.118Z,99381.19
2022-09-14T08:10:18.012Z,99387.09
2022-09-14T08:15:25.156Z,99378.13
2022-09-14T08:20:31.024Z,99370.00
2022-09-14T08:25:36.060Z,99370.41
2022-09-14T08:30:39.821Z,99367.53
2022-09-14T08:36:01.364Z,99361.47
2022-09-14T08:41:13.536Z,99363.09
2022-09-14T08:46:29.778Z,99358.19
2022-09-14T08:51:33.345Z,99354.91
2022-09-14T08:56:41.912Z,99357.38
2022-09-14T09:01:54.976Z,99351.47
2022-09-14T09:07:06.208Z,99344.94
2022-09-14T09:12:17.690Z,99347.41
2022-09-14T09:17:26.470Z,99342.72
2022-09-14T09:22:39.825Z,99332.91
2022-09-14T09:27:44.635Z,99345.13
2022-09-14T09:32:48.803Z,99334.53
2022-09-14T09:37:52.436Z,99329.84
2022-09-14T09:43:10.805Z,99339.88
2022-09-14T09:48:16.780Z,99333.13
2022-09-14T09:53:23.922Z,99322.31
2022-09-14T09:58:36.919Z,99316.25
2022-09-14T10:03:42.278Z,99300.50
2022-09-14T10:08:50.806Z,99301.13
2022-09-14T10:13:57.143Z,99302.34
2022-09-14T10:19:03.075Z,99312.16
2022-09-14T10:24:19.970Z,99315.59
2022-09-14T10:34:54.132Z,99302.94
2022-09-14T10:40:15.995Z,99319.25
2022-09-14T10:45:29.922Z,99310.88
2022-09-14T10:50:46.653Z,99314.19
2022-09-14T10:56:00.205Z,99317.44
2022-09-14T11:01:20.366Z,99307.47
2022-09-14T11:06:47.112Z,99314.19
2022-09-14T11:11:59.017Z,99312.72
2022-09-14T11:17:22.538Z,99299.72
2022-09-14T11:22:37.300Z,99306.44
2022-09-14T11:27:45.947Z,99307.66
2022-09-14T11:32:56.152Z,99293.81
2022-09-14T11:38:04.759Z,99311.31
2022-09-14T11:43:19.721Z,99299.69
2022-09-14T11:48:42.764Z,99278.94
2022-09-14T11:53:48.531Z,99293.38
2022-09-14T11:58:52.338Z,99295.44
2022-09-14T12:04:12.356Z,99282.59
2022-09-14T12:09:53.497Z,99279.13
2022-09-14T12:15:03.726Z,99297.88
2022-09-14T12:20:44.974Z,99277.09
2022-09-14T12:25:58.540Z,99282.38
2022-09-14T12:31:18.396Z,99276.28
2022-09-14T12:36:58.629Z,99277.69
2022-09-14T12:42:29.172Z,99264.84
2022-09-14T12:48:00.725Z,99259.56
2022-09-14T12:53:23.109Z,99249.78
2022-09-14T12:58:45.642Z,99248.97
2022-09-14T13:03:52.231Z,99241.03
2022-09-14T13:09:00.170Z,99243.06
2022-09-14T13:14:09.000Z,99236.56
2022-09-14T13:19:26.965Z,99219.22
2022-09-14T13:24:34.875Z,99213.75
2022-09-14T13:29:41.557Z,99208.22
2022-09-14T13:34:50.739Z,99210.06
2022-09-14T13:39:58.949Z,99203.94
2022-09-14T13:45:08.490Z,99200.09
2022-09-14T13:50:16.364Z,99197.84
2022-09-14T13:55:25.772Z,99202.13
2022-09-14T14:00:36.591Z,99196.66
2022-09-14T14:05:43.986Z,99194.00
2022-09-14T14:10:56.632Z,99196.22
2022-09-14T14:16:21.810Z,99193.59
2022-09-14T14:21:29.584Z,99180.97
2022-09-14T14:26:38.107Z,99164.88
2022-09-14T14:31:45.111Z,99171.00
2022-09-14T14:36:53.434Z,99163.25
2022-09-14T14:42:04.284Z,99171.63
2022-09-14T14:47:16.929Z,99174.66
2022-09-14T14:52:20.382Z,99171.19
2022-09-14T14:57:25.029Z,99165.91
2022-09-14T15:02:33.032Z,99161.44
2022-09-14T15:07:39.512Z,99154.94
2022-09-14T15:12:44.971Z,99146.34
2022-09-14T15:17:53.329Z,99147.97
2022-09-14T15:22:57.317Z,99137.78
2022-09-14T15:28:01.687Z,99132.09
2022-09-14T15:33:06.631Z,99137.59
2022-09-14T15:38:19.212Z,99133.72
2022-09-14T15:43:33.070Z,99134.53
2022-09-14T15:48:40.845Z,99119.47
2022-09-14T15:53:48.090Z,99127.03
2022-09-14T15:58:51.962Z,99136.16
2022-09-14T16:04:09.659Z,99136.97
2022-09-14T16:09:16.398Z,99141.44
2022-09-14T16:14:21.415Z,99132.50
2022-09-14T16:19:26.875Z,99121.91
2022-09-14T16:24:31.281Z,99117.44
2022-09-14T16:46:13.123Z,99098.50
2022-09-14T16:51:21.054Z,99095.47
2022-09-14T16:56:26.120Z,99088.09
2022-09-14T17:07:01.556Z,99085.88
2022-09-14T17:12:05.081Z,99082.63
2022-09-14T17:17:08.031Z,99084.84
2022-09-14T17:22:13.295Z,99083.00
2022-09-14T17:27:17.326Z,99058.59
2022-09-14T17:32:20.413Z,99062.84
2022-09-14T17:37:24.919Z,99059.97
2022-09-14T17:42:28.422Z,99057.94
2022-09-14T17:47:31.826Z,99057.53
2022-09-14T17:52:37.048Z,99063.00
2022-09-14T17:57:40.291Z,99060.94
2022-09-14T18:02:43.534Z,99051.19
2022-09-14T18:07:49.528Z,99066.81
2022-09-14T18:12:53.157Z,99044.88
2022-09-14T18:17:56.357Z,99059.09
2022-09-14T18:23:00.916Z,99056.66
2022-09-14T18:28:04.209Z,99057.88
2022-09-14T18:33:07.345Z,99055.63
2022-09-14T18:38:13.513Z,99052.53
2022-09-14T18:43:17.284Z,99067.19
2022-09-14T18:48:20.564Z,99057.41
2022-09-14T18:53:24.934Z,99054.16
2022-09-14T18:58:28.100Z,99059.84
2022-09-14T19:03:31.855Z,99067.97
2022-09-14T19:08:36.887Z,99072.44
2022-09-14T19:13:40.262Z,99072.00
2022-09-14T19:18:44.557Z,99075.47
2022-09-14T19:23:49.252Z,99086.41
2022-09-14T19:28:53.067Z,99083.53
2022-09-14T19:33:56.101Z,99073.22
2022-09-14T19:39:02.613Z,99077.84
2022-09-14T19:44:06.854Z,99096.16
2022-09-14T19:49:15.030Z,99075.88
2022-09-14T19:54:19.650Z,99067.50
2022-09-14T19:59:22.681Z,99083.34
2022-09-14T20:04:25.723Z,99094.91
2022-09-14T20:09:30.106Z,99093.28
2022-09-14T20:14:33.143Z,99113.19
2022-09-14T20:19:36.649Z,99109.94
2022-09-14T20:24:41.152Z,99106.28
2022-09-14T20:29:44.069Z,99125.59
2022-09-14T20:34:47.092Z,99125.38
2022-09-14T20:39:51.596Z,99122.94
2022-09-14T20:44:54.898Z,99110.53
2022-09-14T20:49:58.215Z,99111.78
2022-09-14T20:55:02.664Z,99113.41
2022-09-14T21:00:06.654Z,99118.06
2022-09-14T21:05:10.376Z,99125.53
2022-09-14T21:10:14.832Z,99119.06
2022-09-14T21:15:18.205Z,99138.56
2022-09-14T21:20:21.451Z,99138.78
2022-09-14T21:25:25.889Z,99144.28
2022-09-14T21:30:28.932Z,99138.44
2022-09-14T21:35:33.726Z,99142.50
2022-09-14T21:40:38.236Z,99133.16
2022-09-14T21:45:46.153Z,99125.22
2022-09-14T21:50:49.757Z,99133.31
2022-09-14T21:55:54.118Z,99144.09
2022-09-14T22:00:58.875Z,99154.66
2022-09-14T22:06:03.466Z,99152.63
2022-09-14T22:11:09.470Z,99142.47
2022-09-14T22:16:18.183Z,99139.44
2022-09-14T22:21:22.513Z,99145.91
2022-09-14T22:26:28.696Z,99150.19
2022-09-14T22:31:33.870Z,99148.56
2022-09-14T22:36:37.131Z,99141.84
2022-09-14T22:41:41.949Z,99132.88
2022-09-14T22:46:45.020Z,99119.88
2022-09-14T22:51:48.020Z,99130.44
2022-09-14T22:56:52.398Z,99106.06
2022-09-14T23:01:55.481Z,99116.00
2022-09-14T23:07:00.914Z,99112.91
2022-09-14T23:12:05.569Z,99123.31
2022-09-14T23:17:08.707Z,99116.56
2022-09-14T23:22:12.233Z,99118.59
2022-09-14T23:27:16.779Z,99124.44
2022-09-14T23:32:19.859Z,99133.94
2022-09-14T23:37:22.994Z,99136.19
2022-09-14T23:42:27.374Z,99159.91
2022-09-14T23:47:30.541Z,99165.00
2022-09-14T23:52:33.692Z,99165.59
2022-09-14T23:57:49.215Z,99168.78
